Terminal Aerodrome Forecast
Issued by NWS

Home | Current Version | Previous Version | Text Only | Print | Product List | Glossary On
Versions: 1 2 3 4 5 6 7 8 9 10 11 12 13 14 15 16 17 18 19 20 21 22
000
FTUS41 KOKX 200500
TAFHPN
TAF
KHPN 200531Z 2006/2106 VRB03KT P6SM SCT015 SCT080
      TEMPO 2009/2011 5SM BR BKN015
     FM201500 12005KT P6SM SCT025 SCT250
     FM202000 15006KT P6SM SCT050 SCT250
     FM210100 15004KT 6SM BR FEW020 SCT050 BKN150
      AMD NOT SKED=

USA.gov is the U.S. government's official web portal to all federal, state and local government web resources and services.